Terminal Aerodrome Forecast
Issued by NWS

Home | Current Version | Previous Version | Text Only | Print | Product List | Glossary On
Versions: 1 2 3 4 5 6 7 8 9 10 11 12 13
000
FTUS45 KTFX 021122
TAFBZN
TAF
KBZN 021122Z 0212/0312 VRB06KT P6SM SKC
     FM022000 VRB05KT P6SM SKC
     FM030200 15005KT P6SM SKC=

USA.gov is the U.S. government's official web portal to all federal, state and local government web resources and services.